Time,TemperatureF,DewpointF,PressureIn,WindDirection,WindDirectionDegrees,WindSpeedMPH,WindSpeedGustMPH,Humidity,HourlyPrecipIn,Conditions,Clouds,dailyrainin,SoftwareType,DateUTC
2013-01-16 00:12:00,33.0,32.0,-100.00,NNW,345,5.0,11.0,96,0.05,,,0.38,,2013-01-16 06:12:00,
2013-01-16 00:22:00,33.0,32.0,-100.00,NNW,345,5.0,11.0,96,0.05,,,0.38,,2013-01-16 06:22:00,
2013-01-16 00:32:00,33.0,32.0,-100.00,NNW,345,5.0,11.0,96,0.05,,,0.38,,2013-01-16 06:32:00,
2013-01-16 00:43:00,33.0,32.0,-100.00,NNW,345,5.0,11.0,96,0.05,,,0.38,,2013-01-16 06:43:00,
2013-01-16 01:12:00,33.0,32.0,-100.00,NNW,338,5.0,10.0,95,0.00,,,0.38,,2013-01-16 07:12:00,
2013-01-16 01:22:00,33.0,32.0,-100.00,NNW,338,5.0,10.0,95,0.00,,,0.38,,2013-01-16 07:22:00,
2013-01-16 01:33:00,33.0,32.0,-100.00,NNW,338,5.0,10.0,95,0.00,,,0.38,,2013-01-16 07:33:00,
2013-01-16 01:42:00,33.0,32.0,-100.00,NNW,338,5.0,10.0,95,0.00,,,0.38,,2013-01-16 07:42:00,
2013-01-16 02:12:00,33.0,32.0,-100.00,NNW,343,6.0,10.0,95,0.01,,,0.39,,2013-01-16 08:12:00,
2013-01-16 02:22:00,33.0,32.0,-100.00,NNW,343,6.0,10.0,95,0.01,,,0.39,,2013-01-16 08:22:00,
2013-01-16 02:32:00,33.0,32.0,-100.00,NNW,343,6.0,10.0,95,0.01,,,0.39,,2013-01-16 08:32:00,
2013-01-16 02:42:00,33.0,32.0,-100.00,NNW,343,6.0,10.0,95,0.01,,,0.39,,2013-01-16 08:42:00,
2013-01-16 03:12:00,33.0,32.0,-100.00,NNW,335,4.0,7.0,96,0.02,,,0.41,,2013-01-16 09:12:00,
2013-01-16 03:22:00,33.0,32.0,-100.00,NNW,335,4.0,7.0,96,0.02,,,0.41,,2013-01-16 09:22:00,
2013-01-16 03:32:00,33.0,32.0,-100.00,NNW,335,4.0,7.0,96,0.02,,,0.41,,2013-01-16 09:32:00,
2013-01-16 03:42:00,33.0,32.0,-100.00,NNW,335,4.0,7.0,96,0.02,,,0.41,,2013-01-16 09:42:00,
2013-01-16 04:12:00,33.0,32.0,-100.00,NNW,346,4.0,8.0,96,0.01,,,0.42,,2013-01-16 10:12:00,
2013-01-16 04:22:00,33.0,32.0,-100.00,NNW,346,4.0,8.0,96,0.01,,,0.42,,2013-01-16 10:22:00,
2013-01-16 04:32:00,33.0,32.0,-100.00,NNW,346,4.0,8.0,96,0.01,,,0.42,,2013-01-16 10:32:00,
2013-01-16 04:42:00,33.0,32.0,-100.00,NNW,346,4.0,8.0,96,0.01,,,0.42,,2013-01-16 10:42:00,
2013-01-16 05:12:00,32.0,31.0,-100.00,NNW,329,6.0,12.0,97,0.01,,,0.43,,2013-01-16 11:12:00,
2013-01-16 05:22:00,32.0,31.0,-100.00,NNW,329,6.0,12.0,97,0.01,,,0.43,,2013-01-16 11:22:00,
2013-01-16 05:33:00,32.0,31.0,-100.00,NNW,329,6.0,12.0,97,0.01,,,0.43,,2013-01-16 11:33:00,
2013-01-16 05:42:00,32.0,31.0,-100.00,NNW,329,6.0,12.0,97,0.01,,,0.43,,2013-01-16 11:42:00,
2013-01-16 06:13:00,33.0,32.0,-100.00,NNW,329,5.0,11.0,96,0.01,,,0.44,,2013-01-16 12:13:00,
2013-01-16 06:22:00,33.0,32.0,-100.00,NNW,329,5.0,11.0,96,0.01,,,0.44,,2013-01-16 12:22:00,
2013-01-16 06:33:00,33.0,32.0,-100.00,NNW,329,5.0,11.0,96,0.01,,,0.44,,2013-01-16 12:33:00,
2013-01-16 06:43:00,33.0,32.0,-100.00,NNW,329,5.0,11.0,96,0.01,,,0.44,,2013-01-16 12:43:00,
2013-01-16 07:12:00,33.0,32.0,-100.00,NNW,331,4.0,9.0,96,0.00,,,0.43,,2013-01-16 13:12:00,
2013-01-16 07:22:00,33.0,32.0,-100.00,NNW,331,4.0,9.0,96,0.00,,,0.43,,2013-01-16 13:22:00,
2013-01-16 07:33:00,33.0,32.0,-100.00,NNW,331,4.0,9.0,96,0.00,,,0.43,,2013-01-16 13:33:00,
2013-01-16 07:43:00,33.0,32.0,-100.00,NNW,331,4.0,9.0,96,0.00,,,0.43,,2013-01-16 13:43:00,
2013-01-16 08:12:00,34.0,33.0,-100.00,North,356,6.0,11.0,95,0.01,,,0.40,,2013-01-16 14:12:00,
2013-01-16 08:23:00,34.0,33.0,-100.00,North,356,6.0,11.0,95,0.01,,,0.40,,2013-01-16 14:23:00,
2013-01-16 08:33:00,34.0,33.0,-100.00,North,356,6.0,11.0,95,0.01,,,0.40,,2013-01-16 14:33:00,
2013-01-16 08:42:00,34.0,33.0,-100.00,North,356,6.0,11.0,95,0.01,,,0.40,,2013-01-16 14:42:00,
2013-01-16 09:12:00,34.0,33.0,-100.00,NNW,337,5.0,9.0,96,0.00,,,0.39,,2013-01-16 15:12:00,
2013-01-16 09:23:00,34.0,33.0,-100.00,NNW,337,5.0,9.0,96,0.00,,,0.39,,2013-01-16 15:23:00,
2013-01-16 09:33:00,34.0,33.0,-100.00,NNW,337,5.0,9.0,96,0.00,,,0.39,,2013-01-16 15:33:00,
2013-01-16 09:43:00,34.0,33.0,-100.00,NNW,337,5.0,9.0,96,0.00,,,0.39,,2013-01-16 15:43:00,
2013-01-16 10:12:00,35.0,34.0,-100.00,NNW,333,5.0,10.0,95,0.00,,,0.38,,2013-01-16 16:12:00,
2013-01-16 10:22:00,35.0,34.0,-100.00,NNW,333,5.0,10.0,95,0.00,,,0.38,,2013-01-16 16:22:00,
2013-01-16 10:33:00,35.0,34.0,-100.00,NNW,333,5.0,10.0,95,0.00,,,0.38,,2013-01-16 16:33:00,
2013-01-16 10:42:00,35.0,34.0,-100.00,NNW,333,5.0,10.0,95,0.00,,,0.38,,2013-01-16 16:42:00,
2013-01-16 11:12:00,35.0,34.0,-100.00,NW,326,4.0,9.0,95,0.01,,,-99.99,,2013-01-16 17:12:00,
2013-01-16 11:23:00,35.0,34.0,-100.00,NW,326,4.0,9.0,95,0.01,,,-99.99,,2013-01-16 17:23:00,
2013-01-16 11:33:00,35.0,34.0,-100.00,NW,326,4.0,9.0,95,0.01,,,-99.99,,2013-01-16 17:33:00,
2013-01-16 11:43:00,35.0,34.0,-100.00,NW,326,4.0,9.0,95,0.01,,,-99.99,,2013-01-16 17:43:00,
2013-01-16 12:13:00,35.0,34.0,-100.00,NNW,331,7.0,12.0,95,0.00,,,0.34,,2013-01-16 18:13:00,
2013-01-16 12:23:00,35.0,34.0,-100.00,NNW,331,7.0,12.0,95,0.00,,,0.34,,2013-01-16 18:23:00,
2013-01-16 12:33:00,35.0,34.0,-100.00,NNW,331,7.0,12.0,95,0.00,,,0.34,,2013-01-16 18:33:00,
2013-01-16 12:42:00,35.0,34.0,-100.00,NNW,331,7.0,12.0,95,0.00,,,0.34,,2013-01-16 18:42:00,
2013-01-16 13:12:00,36.0,34.0,-100.00,NNW,343,6.0,10.0,93,0.00,,,0.32,,2013-01-16 19:12:00,
2013-01-16 13:23:00,36.0,34.0,-100.00,NNW,343,6.0,10.0,93,0.00,,,0.32,,2013-01-16 19:23:00,
2013-01-16 13:33:00,36.0,34.0,-100.00,NNW,343,6.0,10.0,93,0.00,,,0.32,,2013-01-16 19:33:00,
2013-01-16 13:43:00,36.0,34.0,-100.00,NNW,343,6.0,10.0,93,0.00,,,0.32,,2013-01-16 19:43:00,
2013-01-16 14:12:00,37.0,33.0,-100.00,NNW,341,4.0,9.0,86,0.00,,,0.25,,2013-01-16 20:12:00,
2013-01-16 14:23:00,37.0,33.0,-100.00,NNW,341,4.0,9.0,86,0.00,,,0.25,,2013-01-16 20:23:00,
2013-01-16 14:33:00,37.0,33.0,-100.00,NNW,341,4.0,9.0,86,0.00,,,0.25,,2013-01-16 20:33:00,
2013-01-16 14:42:00,37.0,33.0,-100.00,NNW,341,4.0,9.0,86,0.00,,,0.25,,2013-01-16 20:42:00,
2013-01-16 15:12:00,37.0,32.0,-100.00,NNW,331,5.0,10.0,82,0.00,,,0.23,,2013-01-16 21:12:00,
2013-01-16 15:22:00,37.0,32.0,-100.00,NNW,331,5.0,10.0,82,0.00,,,0.23,,2013-01-16 21:22:00,
2013-01-16 15:33:00,37.0,32.0,-100.00,NNW,331,5.0,10.0,82,0.00,,,0.23,,2013-01-16 21:33:00,
2013-01-16 15:43:00,37.0,32.0,-100.00,NNW,331,5.0,10.0,82,0.00,,,0.23,,2013-01-16 21:43:00,
2013-01-16 16:12:00,38.0,34.0,-100.00,NNW,340,4.0,7.0,86,0.00,,,0.23,,2013-01-16 22:12:00,
2013-01-16 16:23:00,38.0,34.0,-100.00,NNW,340,4.0,7.0,86,0.00,,,0.23,,2013-01-16 22:23:00,
2013-01-16 16:33:00,38.0,34.0,-100.00,NNW,340,4.0,7.0,86,0.00,,,0.23,,2013-01-16 22:33:00,
2013-01-16 16:43:00,38.0,34.0,-100.00,NNW,340,4.0,7.0,86,0.00,,,0.23,,2013-01-16 22:43:00,
2013-01-16 17:12:00,38.0,34.0,-100.00,NNW,342,3.0,4.0,87,0.00,,,0.23,,2013-01-16 23:12:00,
2013-01-16 17:23:00,38.0,34.0,-100.00,NNW,342,3.0,4.0,87,0.00,,,0.23,,2013-01-16 23:23:00,
2013-01-16 17:32:00,38.0,34.0,-100.00,NNW,342,3.0,4.0,87,0.00,,,0.23,,2013-01-16 23:32:00,
2013-01-16 17:42:00,38.0,34.0,-100.00,NNW,342,3.0,4.0,87,0.00,,,0.23,,2013-01-16 23:42:00,
2013-01-16 18:12:00,38.0,35.0,-100.00,North,357,1.0,4.0,89,0.00,,,0.23,,2013-01-17 00:12:00,
2013-01-16 18:22:00,38.0,35.0,-100.00,North,357,1.0,4.0,89,0.00,,,0.23,,2013-01-17 00:22:00,
2013-01-16 18:32:00,38.0,35.0,-100.00,North,357,1.0,4.0,89,0.00,,,0.23,,2013-01-17 00:32:00,
2013-01-16 18:42:00,38.0,35.0,-100.00,North,357,1.0,4.0,89,0.00,,,0.23,,2013-01-17 00:42:00,
2013-01-16 19:12:00,38.0,35.0,-100.00,WNW,292,3.0,4.0,90,0.00,,,0.22,,2013-01-17 01:12:00,
2013-01-16 19:22:00,38.0,35.0,-100.00,WNW,292,3.0,4.0,90,0.00,,,0.22,,2013-01-17 01:22:00,
2013-01-16 19:33:00,38.0,35.0,-100.00,WNW,292,3.0,4.0,90,0.00,,,0.22,,2013-01-17 01:33:00,
2013-01-16 19:42:00,38.0,35.0,-100.00,WNW,292,3.0,4.0,90,0.00,,,0.22,,2013-01-17 01:42:00,
2013-01-16 20:12:00,38.0,36.0,-100.00,NNW,335,0.0,0.0,93,0.00,,,0.22,,2013-01-17 02:12:00,
2013-01-16 20:22:00,38.0,36.0,-100.00,NNW,335,0.0,0.0,93,0.00,,,0.22,,2013-01-17 02:22:00,
2013-01-16 20:32:00,38.0,36.0,-100.00,NNW,335,0.0,0.0,93,0.00,,,0.22,,2013-01-17 02:32:00,
2013-01-16 20:42:00,38.0,36.0,-100.00,NNW,335,0.0,0.0,93,0.00,,,0.22,,2013-01-17 02:42:00,
2013-01-16 21:12:00,37.0,36.0,-100.00,NNE,16,0.0,0.0,95,0.00,,,0.20,,2013-01-17 03:12:00,
2013-01-16 21:22:00,37.0,36.0,-100.00,NNE,16,0.0,0.0,95,0.00,,,0.20,,2013-01-17 03:22:00,
2013-01-16 21:32:00,37.0,36.0,-100.00,NNE,16,0.0,0.0,95,0.00,,,0.20,,2013-01-17 03:32:00,
2013-01-16 21:42:00,37.0,36.0,-100.00,NNE,16,0.0,0.0,95,0.00,,,0.20,,2013-01-17 03:42:00,
2013-01-16 22:12:00,38.0,37.0,-100.00,SW,236,0.0,0.0,97,0.00,,,0.14,,2013-01-17 04:12:00,
2013-01-16 22:22:00,38.0,37.0,-100.00,SW,236,0.0,0.0,97,0.00,,,0.14,,2013-01-17 04:22:00,
2013-01-16 22:32:00,38.0,37.0,-100.00,SW,236,0.0,0.0,97,0.00,,,0.14,,2013-01-17 04:32:00,
2013-01-16 22:42:00,38.0,37.0,-100.00,SW,236,0.0,0.0,97,0.00,,,0.14,,2013-01-17 04:42:00,
2013-01-16 23:12:00,38.0,37.0,-100.00,NNW,339,0.0,0.0,96,0.00,,,0.13,,2013-01-17 05:12:00,
2013-01-16 23:22:00,38.0,37.0,-100.00,NNW,339,0.0,0.0,96,0.00,,,0.13,,2013-01-17 05:22:00,
2013-01-16 23:33:00,38.0,37.0,-100.00,NNW,339,0.0,0.0,96,0.00,,,0.13,,2013-01-17 05:33:00,
2013-01-16 23:42:00,38.0,37.0,-100.00,NNW,339,0.0,0.0,96,0.00,,,0.13,,2013-01-17 05:42:00,